createdAt,value
2019-01-16T00:02:33.408Z,10.40
2019-01-16T00:09:04.224Z,9.93
2019-01-16T00:15:24.745Z,10.13
2019-01-16T00:21:48.253Z,8.27
2019-01-16T00:28:15.926Z,9.07
2019-01-16T00:34:32.260Z,8.47
2019-01-16T00:40:51.752Z,9.20
2019-01-16T00:47:12.356Z,9.40
2019-01-16T00:53:40.570Z,9.63
2019-01-16T01:00:07.982Z,9.63
2019-01-16T01:06:39.091Z,9.63
2019-01-16T01:13:06.896Z,9.60
2019-01-16T01:19:37.530Z,10.03
2019-01-16T01:26:20.421Z,10.13
2019-01-16T01:32:45.111Z,10.87
2019-01-16T01:39:12.667Z,9.60
2019-01-16T01:45:40.232Z,9.57
2019-01-16T01:52:03.340Z,10.00
2019-01-16T01:58:30.781Z,8.77
2019-01-16T02:04:57.895Z,7.53
2019-01-16T02:11:12.116Z,8.07
2019-01-16T02:17:35.257Z,7.17
2019-01-16T02:24:14.480Z,8.03
2019-01-16T02:30:46.148Z,7.23
2019-01-16T02:37:09.068Z,8.03
2019-01-16T02:43:39.567Z,7.80
2019-01-16T02:50:19.807Z,7.73
2019-01-16T02:57:02.617Z,7.10
2019-01-16T03:03:20.954Z,7.27
2019-01-16T03:09:48.496Z,6.50
2019-01-16T03:16:25.466Z,7.00
2019-01-16T03:22:47.997Z,7.43
2019-01-16T03:29:08.172Z,8.10
2019-01-16T03:35:31.531Z,9.30
2019-01-16T03:41:56.370Z,8.83
2019-01-16T03:48:20.972Z,9.57
2019-01-16T03:54:49.338Z,9.70
2019-01-16T04:01:14.131Z,8.77
2019-01-16T04:07:47.740Z,8.40
2019-01-16T04:14:11.160Z,8.17
2019-01-16T04:20:26.766Z,9.27
2019-01-16T04:26:46.349Z,9.27
2019-01-16T04:33:00.968Z,8.73
2019-01-16T04:39:28.766Z,8.83
2019-01-16T04:45:53.582Z,8.53
2019-01-16T04:52:21.642Z,8.90
2019-01-16T04:59:03.974Z,9.07
2019-01-16T05:05:31.958Z,7.90
2019-01-16T05:12:02.475Z,7.80
2019-01-16T05:18:42.535Z,7.73
2019-01-16T05:25:06.268Z,7.93
2019-01-16T05:31:49.213Z,6.83
2019-01-16T05:38:25.778Z,7.30
2019-01-16T05:44:56.570Z,6.77
2019-01-16T05:51:15.179Z,7.10
2019-01-16T05:57:39.039Z,6.63
2019-01-16T06:04:09.910Z,6.20
2019-01-16T06:10:34.369Z,6.83
2019-01-16T06:17:11.620Z,6.43
2019-01-16T06:23:36.416Z,5.70
2019-01-16T06:30:07.494Z,5.93
2019-01-16T06:36:31.181Z,5.73
2019-01-16T06:42:59.260Z,5.37
2019-01-16T06:49:39.238Z,4.77
2019-01-16T06:56:13.539Z,4.73
2019-01-16T07:02:37.087Z,4.50
2019-01-16T07:09:20.460Z,4.40
2019-01-16T07:15:46.581Z,3.80
2019-01-16T07:22:23.431Z,4.33
2019-01-16T07:28:37.764Z,3.60
2019-01-16T07:35:01.234Z,4.10
2019-01-16T07:41:29.524Z,3.47
2019-01-16T07:48:02.983Z,3.40
2019-01-16T07:54:26.579Z,3.30
2019-01-16T08:00:50.085Z,2.90
2019-01-16T08:07:13.450Z,3.30
2019-01-16T08:13:48.507Z,3.20
2019-01-16T08:20:31.459Z,3.23
2019-01-16T08:26:46.410Z,3.50
2019-01-16T08:33:17.345Z,3.23
2019-01-16T08:39:32.120Z,3.00
2019-01-16T08:45:56.657Z,3.20
2019-01-16T08:52:34.675Z,3.90
2019-01-16T08:59:02.502Z,4.30
2019-01-16T09:05:28.465Z,5.23
2019-01-16T09:12:11.463Z,6.10
2019-01-16T09:18:24.580Z,6.50
2019-01-16T09:24:45.800Z,7.97
2019-01-16T09:31:16.580Z,8.97
2019-01-16T09:37:59.428Z,9.57
2019-01-16T09:44:36.892Z,10.43
2019-01-16T09:51:07.995Z,10.67
2019-01-16T09:57:31.511Z,10.90
2019-01-16T10:03:59.270Z,10.03
2019-01-16T10:10:30.303Z,9.93
2019-01-16T10:17:04.064Z,9.27
2019-01-16T10:23:35.694Z,8.03
2019-01-16T10:30:00.886Z,8.03
2019-01-16T10:36:24.640Z,7.63
2019-01-16T10:42:58.542Z,6.73
2019-01-16T10:49:21.712Z,7.63
2019-01-16T10:55:55.333Z,6.90
2019-01-16T11:02:15.024Z,6.17
2019-01-16T11:08:51.905Z,6.17
2019-01-16T11:15:19.928Z,5.90
2019-01-16T11:21:43.363Z,5.80
2019-01-16T11:27:59.107Z,6.10
2019-01-16T11:34:23.115Z,6.27
2019-01-16T11:40:45.354Z,6.47
2019-01-16T11:47:16.764Z,5.47
2019-01-16T11:53:44.789Z,5.87
2019-01-16T12:00:10.264Z,4.80
2019-01-16T12:06:44.457Z,5.43
2019-01-16T12:13:09.335Z,5.37
2019-01-16T12:19:36.736Z,5.40
2019-01-16T12:26:08.021Z,6.07
2019-01-16T12:32:28.228Z,6.43
2019-01-16T12:38:51.978Z,6.20
2019-01-16T12:45:28.582Z,6.70
2019-01-16T12:52:02.244Z,16.03
2019-01-16T12:58:30.579Z,30.63
2019-01-16T13:04:58.428Z,5.93
2019-01-16T13:11:21.621Z,5.63
2019-01-16T13:17:45.331Z,5.50
2019-01-16T13:24:14.694Z,4.33
2019-01-16T13:30:38.224Z,5.00
2019-01-16T13:37:02.420Z,5.20
2019-01-16T13:43:27.146Z,6.07
2019-01-16T13:49:50.435Z,5.67
2019-01-16T13:56:24.742Z,4.80
2019-01-16T14:02:48.872Z,4.90
2019-01-16T14:09:03.227Z,4.73
2019-01-16T14:15:36.608Z,4.47
2019-01-16T14:21:59.668Z,4.80
2019-01-16T14:28:24.871Z,7.00
2019-01-16T14:34:45.038Z,4.93
2019-01-16T14:41:14.281Z,4.53
2019-01-16T14:47:53.752Z,4.70
2019-01-16T14:54:33.591Z,4.87
2019-01-16T15:00:56.818Z,4.23
2019-01-16T15:07:21.492Z,5.07
2019-01-16T15:14:01.229Z,4.53
2019-01-16T15:20:39.416Z,4.80
2019-01-16T15:27:03.077Z,4.23
2019-01-16T15:33:34.537Z,4.10
2019-01-16T15:40:01.606Z,4.93
2019-01-16T15:46:25.258Z,4.67
2019-01-16T15:52:49.363Z,4.63
2019-01-16T15:59:13.867Z,4.30
2019-01-16T16:05:41.062Z,5.10
2019-01-16T16:12:20.435Z,5.03
2019-01-16T16:18:52.973Z,4.90
2019-01-16T16:25:10.220Z,5.50
2019-01-16T16:31:26.974Z,5.13
2019-01-16T16:37:51.310Z,5.10
2019-01-16T16:44:22.437Z,5.03
2019-01-16T16:50:47.637Z,5.23
2019-01-16T16:57:18.134Z,4.70
2019-01-16T17:03:43.035Z,5.07
2019-01-16T17:09:58.368Z,5.00
2019-01-16T17:16:21.464Z,6.53
2019-01-16T17:22:52.867Z,7.13
2019-01-16T17:29:16.144Z,6.57
2019-01-16T17:35:37.351Z,6.30
2019-01-16T17:42:08.078Z,6.87
2019-01-16T17:48:29.436Z,6.87
2019-01-16T17:55:00.215Z,8.67
2019-01-16T18:01:23.647Z,7.57
2019-01-16T18:07:51.237Z,7.70
2019-01-16T18:14:22.239Z,7.77
2019-01-16T18:20:52.955Z,6.10
2019-01-16T18:27:37.835Z,6.67
2019-01-16T18:33:57.626Z,6.33
2019-01-16T18:40:14.600Z,5.87
2019-01-16T18:46:45.071Z,6.20
2019-01-16T18:53:02.248Z,5.93
2019-01-16T18:59:43.741Z,6.07
2019-01-16T19:06:08.361Z,6.80
2019-01-16T19:12:34.578Z,5.60
2019-01-16T19:18:48.483Z,5.73
2019-01-16T19:25:11.770Z,5.70
2019-01-16T19:31:51.191Z,5.57
2019-01-16T19:38:24.897Z,5.70
2019-01-16T19:44:49.702Z,5.97
2019-01-16T19:51:15.282Z,6.00
2019-01-16T19:57:33.647Z,6.40
2019-01-16T20:03:51.524Z,5.77
2019-01-16T20:10:25.107Z,6.63
2019-01-16T20:16:48.320Z,6.97
2019-01-16T20:23:19.117Z,7.07
2019-01-16T20:29:56.040Z,6.50
2019-01-16T20:36:23.643Z,7.00
2019-01-16T20:42:46.787Z,7.07
2019-01-16T20:49:16.149Z,7.53
2019-01-16T20:55:30.896Z,7.70
2019-01-16T21:01:55.999Z,7.23
2019-01-16T21:08:12.579Z,7.90
2019-01-16T21:14:44.710Z,7.77
2019-01-16T21:21:01.009Z,8.17
2019-01-16T21:27:32.389Z,8.27
2019-01-16T21:34:00.065Z,8.43
2019-01-16T21:40:42.131Z,8.73
2019-01-16T21:47:19.963Z,7.90
2019-01-16T21:53:53.766Z,9.20
2019-01-16T22:00:17.667Z,8.70
2019-01-16T22:06:37.513Z,8.40
2019-01-16T22:13:17.276Z,8.00
2019-01-16T22:19:43.306Z,8.67
2019-01-16T22:26:02.494Z,8.17
2019-01-16T22:32:35.058Z,8.40
2019-01-16T22:39:00.388Z,9.23
2019-01-16T22:45:29.148Z,9.17
2019-01-16T22:51:50.638Z,8.67
2019-01-16T22:58:14.302Z,8.60
2019-01-16T23:04:38.972Z,9.23
2019-01-16T23:11:14.176Z,9.20
2019-01-16T23:17:38.838Z,9.57
2019-01-16T23:24:04.785Z,9.77
2019-01-16T23:30:31.919Z,9.80
2019-01-16T23:36:59.791Z,10.07
2019-01-16T23:43:23.868Z,10.10
2019-01-16T23:49:57.465Z,10.13
2019-01-16T23:56:23.472Z,10.47
